Time;durP1;ratioP1;P1;durP2;ratioP2;P2;SDS_P1;SDS_P2;PMS_P1;PMS_P2;Temp;Humidity;BMP_temperature;BMP_pressure;BME280_temperature;BME280_humidity;BME280_pressure;Samples;Min_cycle;Max_cycle;Signal;HPM_P1;HPM_P2
2022/05/08 00:00:16;;;;;;;11.80;10.17;;;;;;;14.49;100.00;99692.31;4975142;28;20210;-80
2022/05/08 00:02:54;;;;;;;11.63;9.90;;;;;;;14.52;100.00;99692.06;4972705;28;20214;-80
2022/05/08 00:05:26;;;;;;;12.90;10.07;;;;;;;14.51;100.00;99692.19;4970049;28;20230;-80
2022/05/08 00:07:57;;;;;;;11.80;9.77;;;;;;;14.44;100.00;99689.06;4984022;28;20266;-79
2022/05/08 00:10:27;;;;;;;11.73;10.30;;;;;;;14.42;100.00;99683.00;5044270;28;20201;-79
2022/05/08 00:12:56;;;;;;;12.00;10.57;;;;;;;14.21;100.00;99679.22;5049206;28;20234;-80
2022/05/08 00:15:28;;;;;;;15.30;11.03;;;;;;;14.40;100.00;99687.59;5048806;28;20205;-79
2022/05/08 00:17:58;;;;;;;13.20;10.13;;;;;;;14.22;100.00;99687.09;5061822;28;20192;-79
2022/05/08 00:20:29;;;;;;;14.50;10.40;;;;;;;14.07;100.00;99687.31;5094158;28;20204;-80
2022/05/08 00:23:00;;;;;;;12.93;10.70;;;;;;;13.90;100.00;99696.47;5092673;28;20207;-80
2022/05/08 00:25:30;;;;;;;12.70;9.87;;;;;;;13.98;100.00;99696.78;5084085;28;20251;-79
2022/05/08 00:27:59;;;;;;;17.03;10.57;;;;;;;14.03;100.00;99690.19;5090798;28;20199;-79
2022/05/08 00:30:30;;;;;;;11.40;9.93;;;;;;;14.00;100.00;99698.41;5027250;28;20583;-79
2022/05/08 00:33:18;;;;;;;12.63;10.73;;;;;;;14.05;100.00;99687.41;5031421;28;20194;-79
2022/05/08 00:35:47;;;;;;;13.83;10.60;;;;;;;13.98;100.00;99694.97;5026753;28;20194;-79
2022/05/08 00:38:18;;;;;;;13.50;11.13;;;;;;;13.90;100.00;99691.16;5033657;28;20277;-79
2022/05/08 00:40:46;;;;;;;13.17;11.20;;;;;;;14.07;100.00;99695.28;5033823;28;20197;-79
2022/05/08 00:43:32;;;;;;;13.73;11.07;;;;;;;13.96;100.00;99683.56;5030055;28;20196;-79
2022/05/08 00:46:02;;;;;;;11.63;10.43;;;;;;;13.90;100.00;99689.34;5033795;28;20233;-79
2022/05/08 00:48:37;;;;;;;13.37;10.90;;;;;;;13.72;100.00;99688.78;5026093;28;20480;-79
2022/05/08 00:51:08;;;;;;;13.80;10.80;;;;;;;13.39;100.00;99683.94;5024521;28;20687;-79
2022/05/08 00:53:39;;;;;;;13.17;11.43;;;;;;;13.57;100.00;99681.00;5025886;28;20326;-80
2022/05/08 00:56:09;;;;;;;13.03;10.90;;;;;;;13.13;100.00;99677.69;5081890;28;20199;-80
2022/05/08 00:58:48;;;;;;;13.17;11.47;;;;;;;13.31;100.00;99683.59;5095630;28;20219;-79
2022/05/08 01:01:17;;;;;;;13.70;11.10;;;;;;;13.16;100.00;99677.47;5095475;28;20228;-79
2022/05/08 01:03:48;;;;;;;14.77;11.50;;;;;;;13.33;100.00;99683.50;5093351;28;20200;-79
2022/05/08 01:06:19;;;;;;;14.17;11.23;;;;;;;13.42;100.00;99693.53;5050232;28;20217;-79
2022/05/08 01:08:49;;;;;;;13.10;10.80;;;;;;;13.29;100.00;99685.50;5040263;28;20203;-79
2022/05/08 01:11:20;;;;;;;14.73;10.83;;;;;;;13.24;100.00;99684.13;5053345;28;20216;-80
2022/05/08 01:13:50;;;;;;;12.53;11.20;;;;;;;13.39;100.00;99689.25;5048019;28;20200;-79
2022/05/08 01:16:20;;;;;;;13.20;11.43;;;;;;;13.40;100.00;99690.97;5012059;28;20354;-79
2022/05/08 01:18:51;;;;;;;14.27;11.27;;;;;;;13.43;100.00;99689.91;5010089;28;20201;-80
2022/05/08 01:21:27;;;;;;;16.23;11.27;;;;;;;13.48;100.00;99678.94;5008112;28;20270;-79
2022/05/08 01:23:57;;;;;;;13.77;11.10;;;;;;;13.48;100.00;99682.47;5018608;28;20204;-80
2022/05/08 01:26:26;;;;;;;13.77;10.90;;;;;;;13.43;100.00;99680.13;5048709;28;20213;-79
2022/05/08 01:28:55;;;;;;;13.43;11.60;;;;;;;13.40;100.00;99677.66;5047229;28;20201;-79
2022/05/08 01:31:24;;;;;;;13.37;10.90;;;;;;;13.48;100.00;99678.94;5047142;28;20200;-80
2022/05/08 01:33:53;;;;;;;16.23;11.17;;;;;;;13.39;100.00;99678.59;5053877;28;20196;-80
2022/05/08 01:36:22;;;;;;;12.77;10.83;;;;;;;13.48;100.00;99685.13;5089462;28;20258;-80
2022/05/08 01:38:52;;;;;;;13.33;11.07;;;;;;;13.51;100.00;99682.28;5089479;28;20200;-79
2022/05/08 01:41:23;;;;;;;12.90;11.13;;;;;;;13.45;100.00;99683.53;5086305;28;20291;-79
2022/05/08 01:43:53;;;;;;;12.70;11.03;;;;;;;13.34;100.00;99683.41;5095821;27;20210;-79
2022/05/08 01:46:22;;;;;;;13.77;11.23;;;;;;;13.39;100.00;99683.09;5091821;28;20552;-79
2022/05/08 01:48:49;;;;;;;16.57;11.67;;;;;;;13.32;100.00;99692.44;5092923;28;20196;-79
2022/05/08 01:51:18;;;;;;;16.60;12.50;;;;;;;13.22;100.00;99686.91;5044728;28;20288;-79
2022/05/08 01:53:51;;;;;;;12.33;10.97;;;;;;;13.28;100.00;99697.09;5049482;28;20228;-79
2022/05/08 01:56:21;;;;;;;15.27;11.33;;;;;;;13.35;100.00;99701.06;5048077;28;20201;-80
2022/05/08 01:58:50;;;;;;;13.47;11.27;;;;;;;13.28;100.00;99697.09;5042933;28;20206;-79
2022/05/08 02:01:22;;;;;;;15.67;11.17;;;;;;;13.17;100.00;99705.75;5050659;28;20387;-79
2022/05/08 02:03:51;;;;;;;14.53;12.30;;;;;;;13.20;100.00;99706.53;5048720;28;20212;-79
2022/05/08 02:06:22;;;;;;;12.87;11.57;;;;;;;13.09;100.00;99704.56;5005558;28;20213;-79
2022/05/08 02:08:53;;;;;;;15.97;11.93;;;;;;;12.99;100.00;99704.31;5050069;28;20216;-80
2022/05/08 02:11:24;;;;;;;13.83;11.80;;;;;;;13.14;100.00;99711.31;5046538;28;20200;-79
2022/05/08 02:13:55;;;;;;;15.77;12.43;;;;;;;13.29;100.00;99717.44;5049276;28;20243;-80
2022/05/08 02:16:23;;;;;;;13.97;11.63;;;;;;;13.09;100.00;99716.06;5079206;28;20218;-79
2022/05/08 02:18:52;;;;;;;17.17;12.23;;;;;;;13.10;100.00;99722.22;5086208;28;20198;-79
2022/05/08 02:21:22;;;;;;;14.90;12.17;;;;;;;13.18;100.00;99722.59;5088626;28;20283;-79
2022/05/08 02:23:51;;;;;;;13.93;11.97;;;;;;;12.80;100.00;99720.59;5092775;28;20202;-80
2022/05/08 02:26:26;;;;;;;15.83;13.67;;;;;;;12.99;100.00;99728.25;5028877;28;20217;-80
2022/05/08 02:28:57;;;;;;;16.90;12.37;;;;;;;12.96;100.00;99724.94;5023586;28;20193;-79
2022/05/08 02:31:27;;;;;;;14.07;12.00;;;;;;;12.92;100.00;99731.38;5024082;28;20252;-79
2022/05/08 02:33:58;;;;;;;15.00;12.43;;;;;;;12.87;100.00;99729.91;4952174;28;20287;-80
2022/05/08 02:36:27;;;;;;;16.40;12.27;;;;;;;12.93;100.00;99730.44;4932245;29;20201;-79
2022/05/08 02:38:56;;;;;;;14.80;11.63;;;;;;;12.92;100.00;99734.06;4931559;29;20224;-79
2022/05/08 02:41:26;;;;;;;16.87;12.63;;;;;;;12.97;100.00;99729.31;4936656;28;20204;-80
2022/05/08 02:43:55;;;;;;;15.83;12.97;;;;;;;12.98;100.00;99733.66;4941486;28;20199;-79
2022/05/08 02:46:23;;;;;;;18.10;12.40;;;;;;;12.94;100.00;99732.16;4989302;28;20258;-80
2022/05/08 02:48:53;;;;;;;14.50;13.00;;;;;;;13.10;100.00;99739.03;4985154;28;20282;-79
2022/05/08 02:51:22;;;;;;;14.53;11.97;;;;;;;12.94;100.00;99735.69;5000045;28;20272;-79
2022/05/08 02:53:53;;;;;;;15.03;12.23;;;;;;;12.90;100.00;99737.66;5050973;28;20206;-79
2022/05/08 02:59:10;;;;;;;15.67;11.90;;;;;;;12.71;100.00;99737.13;5050862;28;20203;-79
2022/05/08 03:01:38;;;;;;;15.53;12.07;;;;;;;12.70;100.00;99746.06;5044740;28;20220;-80
2022/05/08 03:04:07;;;;;;;16.60;11.87;;;;;;;12.77;100.00;99736.75;5047012;28;20197;-79
2022/05/08 03:06:36;;;;;;;15.77;12.07;;;;;;;12.84;100.00;99739.88;5049887;28;20212;-79
2022/05/08 03:09:05;;;;;;;15.43;11.83;;;;;;;12.74;100.00;99738.72;5048189;28;20193;-79
2022/05/08 03:11:33;;;;;;;15.00;12.57;;;;;;;12.74;100.00;99741.38;5047313;28;20204;-79
2022/05/08 03:14:02;;;;;;;15.10;11.87;;;;;;;12.78;100.00;99748.25;5057615;28;20207;-80
2022/05/08 03:16:32;;;;;;;15.43;12.03;;;;;;;12.78;100.00;99750.91;5088677;28;20194;-79
2022/05/08 03:19:01;;;;;;;14.97;12.10;;;;;;;12.78;100.00;99756.22;5089119;28;20249;-79
2022/05/08 03:21:29;;;;;;;13.80;12.10;;;;;;;12.61;100.00;99765.25;5091673;28;20279;-79
2022/05/08 03:23:58;;;;;;;16.37;12.80;;;;;;;12.55;100.00;99760.34;5092347;28;20654;-79
2022/05/08 03:26:28;;;;;;;14.57;12.07;;;;;;;12.64;100.00;99764.19;5094938;28;20215;-80
2022/05/08 03:28:59;;;;;;;16.67;13.27;;;;;;;12.70;100.00;99769.97;5092863;28;20199;-80
2022/05/08 03:31:29;;;;;;;16.87;13.30;;;;;;;12.75;100.00;99769.72;5089441;28;20200;-79
2022/05/08 03:34:03;;;;;;;17.00;13.77;;;;;;;12.87;100.00;99774.25;5091481;28;20188;-80
2022/05/08 03:36:34;;;;;;;17.17;13.77;;;;;;;12.76;100.00;99774.06;5087755;28;20199;-81
2022/05/08 03:39:03;;;;;;;16.17;13.67;;;;;;;12.77;100.00;99770.47;5092621;28;20214;-79
2022/05/08 03:41:31;;;;;;;19.53;15.17;;;;;;;12.71;100.00;99777.00;5092469;28;20191;-79
2022/05/08 03:44:00;;;;;;;22.67;14.43;;;;;;;12.81;100.00;99779.94;5092813;28;20204;-79
2022/05/08 03:46:35;;;;;;;18.30;14.63;;;;;;;12.82;100.00;99774.53;5089161;28;20225;-79
2022/05/08 03:49:06;;;;;;;22.20;16.33;;;;;;;12.78;100.00;99773.00;5091563;28;20194;-79
2022/05/08 03:51:35;;;;;;;21.27;15.90;;;;;;;12.79;100.00;99784.50;5085151;28;20630;-79
2022/05/08 03:54:08;;;;;;;20.13;16.13;;;;;;;12.72;100.00;99777.84;5091900;28;20196;-79
2022/05/08 03:56:38;;;;;;;23.67;16.53;;;;;;;12.67;100.00;99783.47;5089418;28;20284;-79
2022/05/08 03:59:10;;;;;;;24.40;17.50;;;;;;;12.71;100.00;99784.97;5089657;28;20247;-79
2022/05/08 04:01:38;;;;;;;24.50;18.23;;;;;;;12.76;100.00;99788.22;5069664;28;20198;-80
2022/05/08 04:04:08;;;;;;;21.13;16.83;;;;;;;12.93;100.00;99787.13;5095412;28;20184;-79
2022/05/08 04:06:39;;;;;;;21.10;17.67;;;;;;;12.86;100.00;99792.00;5096552;28;20220;-79
2022/05/08 04:09:07;;;;;;;25.53;18.97;;;;;;;12.78;100.00;99786.31;5092264;28;20203;-79
2022/05/08 04:11:37;;;;;;;22.43;18.10;;;;;;;12.77;100.00;99781.94;5096266;28;20207;-79
2022/05/08 04:14:06;;;;;;;25.03;18.73;;;;;;;12.90;100.00;99787.34;5050338;28;20332;-80
2022/05/08 04:16:36;;;;;;;24.07;18.50;;;;;;;12.96;100.00;99783.44;5048082;28;20276;-80
2022/05/08 04:19:05;;;;;;;25.70;18.90;;;;;;;12.84;100.00;99788.59;5013127;28;20284;-80
2022/05/08 04:21:36;;;;;;;27.13;19.93;;;;;;;12.96;100.00;99792.28;4992121;28;20282;-80
2022/05/08 04:24:19;;;;;;;24.40;20.07;;;;;;;12.97;100.00;99786.00;4983463;28;20207;-80
2022/05/08 04:26:47;;;;;;;23.63;19.03;;;;;;;12.99;100.00;99800.03;4986415;28;20219;-79
2022/05/08 04:29:16;;;;;;;26.80;19.23;;;;;;;12.96;100.00;99792.28;4994278;28;20214;-79
2022/05/08 04:31:47;;;;;;;26.67;20.00;;;;;;;13.07;100.00;99795.09;5003162;28;20228;-80
2022/05/08 04:34:16;;;;;;;27.70;20.43;;;;;;;13.12;100.00;99793.00;5029749;28;20200;-80
2022/05/08 04:36:46;;;;;;;25.03;20.33;;;;;;;13.09;100.00;99800.31;5027532;28;20216;-80
2022/05/08 04:39:15;;;;;;;25.73;20.17;;;;;;;13.08;100.00;99804.78;5026603;28;20198;-79
2022/05/08 04:41:43;;;;;;;23.63;20.07;;;;;;;13.13;100.00;99802.69;5030897;28;20672;-79
2022/05/08 04:44:11;;;;;;;25.97;19.93;;;;;;;13.06;100.00;99801.38;5054503;28;20193;-80
2022/05/08 04:46:40;;;;;;;27.37;20.83;;;;;;;13.06;100.00;99812.00;5080993;28;20215;-80
2022/05/08 04:49:08;;;;;;;26.63;20.77;;;;;;;13.08;100.00;99807.44;5092616;28;20283;-79
2022/05/08 04:51:39;;;;;;;26.70;21.50;;;;;;;13.23;100.00;99813.63;5091849;28;20203;-80
2022/05/08 04:54:09;;;;;;;26.03;20.17;;;;;;;13.15;100.00;99810.56;5098340;28;20234;-80
2022/05/08 04:56:38;;;;;;;24.27;19.00;;;;;;;13.26;100.00;99810.75;5092645;28;20199;-80
2022/05/08 04:59:06;;;;;;;27.20;20.27;;;;;;;13.38;100.00;99812.63;5091643;28;20195;-80
2022/05/08 05:01:37;;;;;;;25.97;20.00;;;;;;;13.32;100.00;99812.19;5095564;28;20210;-80
2022/05/08 05:04:06;;;;;;;23.87;19.43;;;;;;;13.25;100.00;99810.88;5091361;28;20672;-79
2022/05/08 05:06:35;;;;;;;25.33;19.97;;;;;;;13.30;100.00;99806.94;5095129;28;20655;-80
2022/05/08 05:09:03;;;;;;;22.33;19.00;;;;;;;13.35;100.00;99815.50;5093065;28;20187;-80
2022/05/08 05:11:33;;;;;;;24.50;20.47;;;;;;;13.30;100.00;99816.72;5076672;28;20184;-79
2022/05/08 05:14:02;;;;;;;28.20;20.67;;;;;;;13.37;100.00;99826.03;5093847;28;20192;-79
2022/05/08 05:16:30;;;;;;;25.67;20.87;;;;;;;13.28;100.00;99829.28;5095199;28;20427;-80
2022/05/08 05:18:59;;;;;;;28.90;20.87;;;;;;;13.33;100.00;99824.53;5086199;28;20196;-80
2022/05/08 05:21:31;;;;;;;27.37;20.07;;;;;;;13.38;100.00;99825.91;5090282;28;20200;-80
2022/05/08 05:24:02;;;;;;;24.33;18.70;;;;;;;13.44;100.00;99827.34;5094973;28;20192;-80
2022/05/08 05:26:31;;;;;;;24.17;19.47;;;;;;;13.44;100.00;99830.84;5092997;28;20275;-80
2022/05/08 05:29:02;;;;;;;23.23;18.60;;;;;;;13.40;100.00;99829.34;5008175;28;20209;-80
2022/05/08 05:31:30;;;;;;;25.60;19.63;;;;;;;13.54;100.00;99825.78;5011627;28;20242;-79
2022/05/08 05:33:59;;;;;;;24.70;19.63;;;;;;;13.42;100.00;99821.28;5006737;28;20202;-80
2022/05/08 05:36:27;;;;;;;24.10;19.77;;;;;;;13.46;100.00;99830.75;5001747;28;20191;-79
2022/05/08 05:38:56;;;;;;;23.87;18.90;;;;;;;13.38;100.00;99835.72;5012955;28;20191;-79
2022/05/08 05:41:24;;;;;;;24.80;19.83;;;;;;;13.37;100.00;99836.66;5008870;28;20286;-79
2022/05/08 05:43:53;;;;;;;24.17;19.50;;;;;;;13.38;100.00;99844.56;5003673;28;20206;-80
2022/05/08 05:49:10;;;;;;;26.40;19.40;;;;;;;13.38;100.00;99838.38;5093613;28;20299;-81
2022/05/08 05:51:40;;;;;;;23.80;18.90;;;;;;;13.58;100.00;99835.28;5090409;28;20200;-79
2022/05/08 05:54:08;;;;;;;24.80;19.07;;;;;;;13.51;100.00;99831.31;5090505;28;20184;-80
2022/05/08 05:56:37;;;;;;;25.30;19.13;;;;;;;13.40;100.00;99839.13;5096989;27;20196;-80
2022/05/08 05:59:05;;;;;;;24.03;18.70;;;;;;;13.52;100.00;99843.69;5091586;28;20203;-80
2022/05/08 06:01:59;;;;;;;26.17;20.03;;;;;;;13.53;100.00;99849.84;5094465;28;20196;-80
2022/05/08 06:04:28;;;;;;;24.17;19.57;;;;;;;13.43;100.00;99850.44;5091353;28;20237;-80
2022/05/08 06:06:58;;;;;;;24.57;19.93;;;;;;;13.67;100.00;99852.44;5073625;28;20246;-80
2022/05/08 06:09:26;;;;;;;24.97;19.53;;;;;;;13.65;100.00;99852.56;5092284;28;20223;-80
2022/05/08 06:11:55;;;;;;;23.47;18.77;;;;;;;13.67;100.00;99853.31;5068823;28;20199;-80
2022/05/08 06:14:23;;;;;;;24.40;18.60;;;;;;;13.80;100.00;99840.06;5091646;28;20260;-80
2022/05/08 06:16:54;;;;;;;22.50;18.00;;;;;;;13.81;100.00;99846.22;5028008;28;20716;-80
2022/05/08 06:19:24;;;;;;;22.80;18.23;;;;;;;13.78;100.00;99838.44;5028183;28;20225;-79
2022/05/08 06:21:53;;;;;;;21.67;18.13;;;;;;;13.83;100.00;99845.16;5008497;28;20209;-79
2022/05/08 06:24:22;;;;;;;21.40;17.77;;;;;;;13.86;100.00;99846.75;5021179;28;20393;-80
2022/05/08 06:26:50;;;;;;;20.90;17.67;;;;;;;13.74;100.00;99843.13;5025023;28;20233;-79
2022/05/08 06:29:19;;;;;;;21.07;17.60;;;;;;;13.89;100.00;99844.75;5031431;28;20285;-80
2022/05/08 06:31:48;;;;;;;19.87;17.00;;;;;;;13.94;100.00;99850.63;5026874;28;20202;-79
2022/05/08 06:34:18;;;;;;;22.30;17.43;;;;;;;14.06;100.00;99854.28;5035979;28;20241;-79
2022/05/08 06:36:50;;;;;;;22.53;16.97;;;;;;;14.32;100.00;99852.53;5072482;28;20272;-80
2022/05/08 06:39:18;;;;;;;20.57;17.03;;;;;;;14.21;100.00;99844.41;5090576;28;20259;-80
2022/05/08 06:41:49;;;;;;;19.17;16.80;;;;;;;14.26;100.00;99844.94;5092540;28;20188;-80
2022/05/08 06:44:18;;;;;;;23.03;17.63;;;;;;;14.30;100.00;99841.13;5096071;27;20203;-80
2022/05/08 06:46:46;;;;;;;20.23;17.10;;;;;;;14.45;100.00;99834.75;5087483;28;20661;-80
2022/05/08 06:49:18;;;;;;;20.83;16.47;;;;;;;14.65;100.00;99833.34;5091744;28;20234;-80
2022/05/08 06:51:49;;;;;;;19.80;15.67;;;;;;;14.68;100.00;99835.84;5091443;28;20203;-79
2022/05/08 06:54:17;;;;;;;18.50;16.47;;;;;;;14.91;100.00;99838.69;5093037;28;20275;-79
2022/05/08 06:56:46;;;;;;;21.20;17.27;;;;;;;14.95;100.00;99838.34;5095584;28;20199;-81
2022/05/08 07:02:09;;;;;;;21.77;15.87;;;;;;;15.38;100.00;99837.94;5093372;28;20196;-80
2022/05/08 07:04:39;;;;;;;18.30;16.00;;;;;;;15.36;100.00;99838.06;5086475;28;20198;-80
2022/05/08 07:07:10;;;;;;;17.97;15.40;;;;;;;15.33;100.00;99835.59;5012058;28;20206;-79
2022/05/08 07:09:39;;;;;;;17.63;15.40;;;;;;;15.25;100.00;99845.09;5006625;28;20217;-80
2022/05/08 07:12:08;;;;;;;18.67;15.33;;;;;;;15.38;100.00;99844.13;5002473;28;20209;-80
2022/05/08 07:14:40;;;;;;;18.93;15.20;;;;;;;15.40;100.00;99844.84;5006797;28;20229;-80
2022/05/08 07:17:09;;;;;;;19.67;14.63;;;;;;;15.59;100.00;99838.16;5006010;28;20191;-80
2022/05/08 07:19:38;;;;;;;17.00;14.93;;;;;;;15.44;100.00;99840.13;5003891;28;20200;-80
2022/05/08 07:22:07;;;;;;;19.03;16.00;;;;;;;15.43;100.00;99847.28;5008381;28;20194;-80
2022/05/08 07:24:40;;;;;;;19.13;15.23;;;;;;;15.65;100.00;99846.63;5019768;28;20220;-80
2022/05/08 07:27:11;;;;;;;18.17;14.60;;;;;;;15.27;100.00;99848.53;5065877;28;20211;-80
2022/05/08 07:29:41;;;;;;;17.00;14.30;;;;;;;15.31;100.00;99845.53;5066937;28;20299;-80
2022/05/08 07:32:11;;;;;;;18.77;15.80;;;;;;;15.08;100.00;99849.88;5079090;28;20271;-80
2022/05/08 07:37:27;;;;;;;18.87;15.30;;;;;;;15.32;100.00;99854.38;5032497;28;20190;-80
2022/05/08 07:39:58;;;;;;;18.23;14.93;;;;;;;15.31;100.00;99860.69;5026262;28;20201;-80
2022/05/08 07:42:27;;;;;;;19.83;14.70;;;;;;;15.36;100.00;99850.53;5028426;28;20202;-80
2022/05/08 07:44:55;;;;;;;18.63;15.27;;;;;;;15.52;100.00;99858.28;5029224;28;20201;-79
2022/05/08 07:47:24;;;;;;;18.80;14.47;;;;;;;15.78;100.00;99853.72;5029663;28;20212;-80
2022/05/08 07:49:54;;;;;;;20.40;14.03;;;;;;;15.98;100.00;99855.75;5031168;28;20308;-80
2022/05/08 07:52:23;;;;;;;16.37;14.27;;;;;;;16.13;100.00;99865.31;5034865;28;20205;-80
2022/05/08 07:54:52;;;;;;;16.87;13.73;;;;;;;16.20;100.00;99854.97;5051481;28;20256;-80
2022/05/08 07:57:22;;;;;;;16.77;13.80;;;;;;;16.16;100.00;99857.03;5093475;28;20196;-80
2022/05/08 07:59:50;;;;;;;15.63;13.60;;;;;;;16.27;100.00;99856.22;5096465;28;20196;-80
2022/05/08 08:02:21;;;;;;;16.57;12.97;;;;;;;16.39;100.00;99860.63;5094374;28;20295;-79
2022/05/08 08:04:49;;;;;;;15.77;13.20;;;;;;;16.55;100.00;99858.47;5050410;28;20231;-80
2022/05/08 08:07:17;;;;;;;16.50;13.83;;;;;;;16.43;100.00;99853.22;5050756;28;20193;-80
2022/05/08 08:09:46;;;;;;;16.50;13.60;;;;;;;16.66;100.00;99856.78;5052730;28;20227;-80
2022/05/08 08:12:15;;;;;;;14.87;12.60;;;;;;;16.72;100.00;99864.38;5049787;28;20204;-80
2022/05/08 08:14:47;;;;;;;15.97;12.53;;;;;;;16.92;100.00;99863.66;5046910;28;20197;-80
2022/05/08 08:17:18;;;;;;;16.47;13.03;;;;;;;16.53;100.00;99857.75;5054340;28;20205;-80
2022/05/08 08:19:54;;;;;;;14.53;12.80;;;;;;;16.81;100.00;99869.00;5047609;28;20197;-80
2022/05/08 08:22:23;;;;;;;14.20;12.43;;;;;;;16.58;100.00;99865.41;5045658;28;20223;-80
2022/05/08 08:24:52;;;;;;;16.83;13.60;;;;;;;16.68;100.00;99869.09;5011392;28;20281;-79
2022/05/08 08:27:21;;;;;;;15.13;12.30;;;;;;;16.92;100.00;99868.16;5008923;28;20278;-80
2022/05/08 08:29:52;;;;;;;12.93;11.37;;;;;;;17.11;100.00;99868.41;5034052;28;20217;-80
2022/05/08 08:32:26;;;;;;;13.47;11.33;;;;;;;17.55;100.00;99877.34;4991154;28;20214;-80
2022/05/08 08:34:54;;;;;;;14.53;11.07;;;;;;;17.31;100.00;99873.03;4988990;28;20192;-80
2022/05/08 08:37:22;;;;;;;15.30;11.80;;;;;;;17.58;100.00;99875.28;4994467;28;20202;-80
2022/05/08 08:39:51;;;;;;;14.30;12.17;;;;;;;17.77;100.00;99871.16;4988258;28;20210;-80
2022/05/08 08:42:26;;;;;;;13.00;11.60;;;;;;;17.49;100.00;99877.88;5000895;28;20200;-81
2022/05/08 08:47:52;;;;;;;12.13;10.93;;;;;;;17.54;100.00;99881.84;5053863;28;20193;-81
2022/05/08 08:50:24;;;;;;;12.60;11.30;;;;;;;17.57;100.00;99878.09;5036382;28;20698;-80
2022/05/08 08:52:54;;;;;;;15.40;11.73;;;;;;;17.68;100.00;99881.59;5096536;28;20203;-81
2022/05/08 08:55:22;;;;;;;12.90;11.33;;;;;;;18.01;100.00;99875.31;5096115;28;20244;-81
2022/05/08 08:57:51;;;;;;;16.23;11.13;;;;;;;18.42;100.00;99870.09;5096063;28;20245;-80
2022/05/08 09:00:22;;;;;;;12.13;10.77;;;;;;;18.48;100.00;99878.50;5090173;28;20651;-80
2022/05/08 09:02:52;;;;;;;14.87;11.30;;;;;;;18.37;100.00;99878.56;5054812;28;20196;-80
2022/05/08 09:05:21;;;;;;;13.37;10.77;;;;;;;18.64;100.00;99880.72;5092103;28;20194;-81
2022/05/08 09:07:52;;;;;;;14.53;10.70;;;;;;;18.86;100.00;99879.75;5098225;27;20370;-80
2022/05/08 09:10:22;;;;;;;13.27;10.97;;;;;;;18.89;100.00;99879.47;5094793;28;20235;-80
2022/05/08 09:13:07;;;;;;;14.03;10.70;;;;;;;19.07;100.00;99877.88;5098029;27;20327;-81
2022/05/08 09:15:40;;;;;;;13.97;11.07;;;;;;;19.15;100.00;99874.50;5094009;28;20200;-81
2022/05/08 09:18:12;;;;;;;15.13;10.50;;;;;;;19.22;100.00;99877.53;5102158;28;20195;-80
2022/05/08 09:20:43;;;;;;;13.97;9.87;;;;;;;18.98;100.00;99875.13;5092402;28;20232;-80
2022/05/08 09:23:14;;;;;;;10.73;9.63;;;;;;;19.04;100.00;99871.94;5094793;28;20207;-81
2022/05/08 09:25:44;;;;;;;12.77;10.17;;;;;;;18.89;100.00;99866.03;5090178;28;20231;-81
2022/05/08 09:28:33;;;;;;;15.07;10.07;;;;;;;19.08;100.00;99871.50;5094974;28;20241;-81
2022/05/08 09:31:05;;;;;;;11.33;10.03;;;;;;;19.31;100.00;99865.97;5088250;28;20228;-80
2022/05/08 09:33:35;;;;;;;11.47;9.80;;;;;;;19.86;100.00;99867.22;5093525;28;20192;-82
2022/05/08 09:36:06;;;;;;;13.20;9.00;;;;;;;19.88;100.00;99869.75;5097596;27;20203;-81
2022/05/08 09:38:45;;;;;;;10.93;9.17;;;;;;;20.02;100.00;99867.53;5076854;28;20199;-81
2022/05/08 09:41:18;;;;;;;9.70;8.70;;;;;;;20.16;100.00;99870.78;5095947;28;20203;-81
2022/05/08 09:43:47;;;;;;;10.33;9.20;;;;;;;20.29;100.00;99866.81;5029638;28;20194;-80
2022/05/08 09:46:17;;;;;;;11.27;9.33;;;;;;;19.91;100.00;99858.75;5024952;28;20198;-80
2022/05/08 09:48:48;;;;;;;12.73;9.70;;;;;;;20.11;100.00;99856.91;5025539;28;20232;-81
2022/05/08 09:51:17;;;;;;;12.50;10.13;;;;;;;19.95;100.00;99863.69;4949762;29;20216;-80
2022/05/08 09:53:47;;;;;;;10.70;9.60;;;;;;;20.22;100.00;99865.69;4952887;29;20193;-80
2022/05/08 09:56:17;;;;;;;12.27;10.03;;;;;;;19.82;100.00;99862.28;4949909;29;20219;-81
2022/05/08 09:58:45;;;;;;;11.03;9.13;;;;;;;19.95;100.00;99852.94;4916090;29;20212;-80
2022/05/08 10:01:16;;;;;;;10.87;8.83;;;;;;;19.98;100.00;99866.13;4910100;29;20202;-81
2022/05/08 10:03:48;;;;;;;11.40;8.77;;;;;;;20.51;100.00;99860.28;4912761;29;20201;-80
2022/05/08 10:06:19;;;;;;;11.23;8.87;;;;;;;20.52;100.00;99855.75;4911801;29;20197;-80
2022/05/08 10:08:50;;;;;;;11.67;9.20;;;;;;;20.53;100.00;99852.91;4925474;29;20211;-81
2022/05/08 10:14:11;;;;;;;11.57;8.87;;;;;;;20.93;100.00;99856.34;4954569;29;20207;-81
2022/05/08 10:16:56;;;;;;;10.10;8.47;;;;;;;21.11;100.00;99858.13;4903940;29;20201;-81
2022/05/08 10:20:00;;;;;;;10.87;8.43;;;;;;;21.61;100.00;99852.34;4928429;29;20216;-81
2022/05/08 10:22:47;;;;;;;8.68;7.30;;;;;;;21.04;100.00;99851.66;5007114;28;20201;-80
2022/05/08 10:25:17;;;;;;;10.27;8.23;;;;;;;21.93;100.00;99848.31;5008964;28;20226;-82
2022/05/08 10:28:07;;;;;;;10.17;7.70;;;;;;;21.49;100.00;99850.03;5009241;28;20202;-81
2022/05/08 10:30:43;;;;;;;9.70;7.95;;;;;;;21.42;100.00;99850.66;4974005;28;20273;-80
2022/05/08 10:33:12;;;;;;;10.18;7.97;;;;;;;21.82;100.00;99846.69;4968819;28;20355;-81
2022/05/08 10:36:09;;;;;;;8.65;7.75;;;;;;;21.85;100.00;99845.53;4963706;28;20207;-81
2022/05/08 10:38:41;;;;;;;8.45;7.40;;;;;;;21.53;100.00;99848.75;4972901;28;20652;-80
2022/05/08 10:41:43;;;;;;;10.13;8.07;;;;;;;21.74;100.00;99843.06;5013073;28;20227;-81
2022/05/08 10:44:34;;;;;;;11.15;8.10;;;;;;;21.25;100.00;99843.34;5072304;28;20643;-81
2022/05/08 10:47:43;;;;;;;10.07;7.03;;;;;;;22.27;100.00;99848.47;5059080;28;20215;-81
2022/05/08 10:50:15;;;;;;;8.23;7.32;;;;;;;22.36;100.00;99847.53;5091973;28;20315;-81
2022/05/08 10:52:48;;;;;;;11.27;7.70;;;;;;;22.60;100.00;99846.03;5090471;28;20241;-81
2022/05/08 10:55:21;;;;;;;8.48;6.80;;;;;;;22.53;100.00;99848.50;5093258;28;20191;-81
2022/05/08 10:57:51;;;;;;;6.82;6.13;;;;;;;22.48;100.00;99848.13;5091616;28;20211;-81
2022/05/08 11:00:22;;;;;;;10.25;7.78;;;;;;;22.72;100.00;99848.31;5088500;28;20196;-81
2022/05/08 11:02:54;;;;;;;8.48;6.88;;;;;;;22.61;100.00;99840.47;5092930;28;20650;-81
2022/05/08 11:05:24;;;;;;;9.65;7.70;;;;;;;22.99;100.00;99839.22;5089686;28;20696;-81
2022/05/08 11:07:56;;;;;;;10.10;7.72;;;;;;;22.35;100.00;99836.91;5090763;28;20199;-80
2022/05/08 11:10:27;;;;;;;8.25;7.28;;;;;;;22.99;100.00;99849.19;5087471;28;20226;-80
2022/05/08 11:12:58;;;;;;;8.30;7.20;;;;;;;22.74;100.00;99843.59;5093083;28;20207;-81
2022/05/08 11:15:28;;;;;;;8.57;7.32;;;;;;;22.85;100.00;99850.59;5090280;28;20255;-82
2022/05/08 11:18:03;;;;;;;10.05;7.82;;;;;;;23.14;100.00;99837.59;5092537;28;20283;-81
2022/05/08 11:20:33;;;;;;;9.85;7.05;;;;;;;23.62;100.00;99846.91;5090653;28;20201;-81
2022/05/08 11:23:07;;;;;;;10.23;7.50;;;;;;;23.59;100.00;99844.53;5068696;28;20215;-81
2022/05/08 11:25:37;;;;;;;8.93;6.97;;;;;;;23.64;100.00;99846.75;5064853;28;20227;-81
2022/05/08 11:28:06;;;;;;;8.20;7.25;;;;;;;23.76;100.00;99853.56;5007762;28;20186;-81
2022/05/08 11:30:41;;;;;;;9.52;7.60;;;;;;;22.91;100.00;99849.97;5009889;28;20221;-81
2022/05/08 11:36:06;;;;;;;8.60;7.30;;;;;;;23.32;100.00;99850.16;5008541;28;20203;-81
2022/05/08 11:38:42;;;;;;;12.50;7.93;;;;;;;23.06;100.00;99850.19;5010196;28;20697;-82
2022/05/08 11:41:12;;;;;;;8.15;7.05;;;;;;;22.65;100.00;99849.09;5015251;28;20208;-82
2022/05/08 11:43:42;;;;;;;9.07;7.18;;;;;;;23.61;98.44;99847.94;5030997;28;20194;-81
2022/05/08 11:46:16;;;;;;;11.45;6.90;;;;;;;24.39;96.66;99844.84;5024671;28;20283;-81
2022/05/08 11:48:51;;;;;;;8.80;6.82;;;;;;;23.89;97.94;99839.53;5030763;28;20193;-81